Time;durP1;ratioP1;P1;durP2;ratioP2;P2;SDS_P1;SDS_P2;PMS_P1;PMS_P2;Temp;Humidity;BMP_temperature;BMP_pressure;BME280_temperature;BME280_humidity;BME280_pressure;Samples;Min_cycle;Max_cycle;Signal;HPM_P1;HPM_P2
2023/05/05 00:01:44;;;;;;;2.78;1.15;;;15.40;99.90;;;;;;4917799;28;37734;-87
2023/05/05 00:04:10;;;;;;;2.10;0.85;;;15.50;99.90;;;;;;4931391;28;38798;-86
2023/05/05 00:06:36;;;;;;;5.50;1.38;;;15.50;99.90;;;;;;4937490;28;38280;-87
2023/05/05 00:09:02;;;;;;;2.88;1.10;;;15.60;99.90;;;;;;4929826;28;36211;-85
2023/05/05 00:11:29;;;;;;;2.80;1.15;;;15.70;99.90;;;;;;4951484;28;38338;-86
2023/05/05 00:13:55;;;;;;;1.90;1.02;;;15.80;99.90;;;;;;4930951;28;37538;-88
2023/05/05 00:16:22;;;;;;;1.35;0.70;;;15.80;99.90;;;;;;4931940;28;38688;-87
2023/05/05 00:18:48;;;;;;;3.15;1.25;;;15.80;99.90;;;;;;4925093;28;37146;-88
2023/05/05 00:21:14;;;;;;;5.35;1.15;;;15.80;99.90;;;;;;4936153;28;38477;-87
2023/05/05 00:23:40;;;;;;;2.00;1.02;;;15.80;99.90;;;;;;4928185;28;38744;-88
2023/05/05 00:26:06;;;;;;;3.00;1.67;;;15.80;99.90;;;;;;4924282;28;37058;-87
2023/05/05 00:28:32;;;;;;;1.77;1.50;;;15.90;99.90;;;;;;4927932;29;36244;-86
2023/05/05 00:30:59;;;;;;;2.25;1.77;;;15.90;99.90;;;;;;4916740;29;37531;-89
2023/05/05 00:33:25;;;;;;;6.90;1.70;;;15.90;99.90;;;;;;4905944;29;38323;-89
2023/05/05 00:35:51;;;;;;;1.45;1.35;;;15.80;99.90;;;;;;4905312;29;37492;-88
2023/05/05 00:38:17;;;;;;;2.38;1.45;;;15.80;99.90;;;;;;4933826;28;36187;-89
2023/05/05 00:40:43;;;;;;;1.95;1.50;;;15.80;99.90;;;;;;4929586;28;38022;-90
2023/05/05 00:43:09;;;;;;;3.80;1.23;;;15.70;99.90;;;;;;4926127;28;37240;-90
2023/05/05 00:45:37;;;;;;;2.92;1.38;;;15.70;99.90;;;;;;4950456;28;38776;-89
2023/05/05 00:48:05;;;;;;;3.45;1.58;;;15.60;99.90;;;;;;4924286;28;36264;-90
2023/05/05 00:50:31;;;;;;;5.60;2.10;;;15.60;99.90;;;;;;4933045;28;38671;-89
2023/05/05 00:53:03;;;;;;;2.67;1.67;;;15.50;99.90;;;;;;4940792;28;35945;-90
2023/05/05 00:55:30;;;;;;;3.85;1.80;;;15.40;99.90;;;;;;4920733;28;48323;-89
2023/05/05 00:57:57;;;;;;;3.67;1.92;;;15.20;99.90;;;;;;4923774;28;36433;-88
2023/05/05 01:03:07;;;;;;;5.05;1.90;;;15.10;99.90;;;;;;5212919;23;20072;-92
2023/05/05 01:05:57;;;;;;;4.00;1.80;;;15.00;99.90;;;;;;4893545;29;39003;-91
2023/05/05 01:09:08;;;;;;;5.97;2.05;;;14.90;99.90;;;;;;4892591;29;37930;-90
2023/05/05 01:11:41;;;;;;;2.70;1.70;;;14.70;99.90;;;;;;4882564;29;47137;-92
2023/05/05 01:14:18;;;;;;;3.50;2.05;;;14.60;99.90;;;;;;4875855;29;39036;-92
2023/05/05 01:17:01;;;;;;;2.50;1.90;;;14.50;99.90;;;;;;4884996;29;36772;-91
2023/05/05 01:19:34;;;;;;;6.50;2.13;;;14.50;99.90;;;;;;4894898;29;47412;-91
2023/05/05 01:22:02;;;;;;;;;;;14.40;99.90;;;;;;4899618;29;39078;-89
2023/05/05 01:25:07;;;;;;;5.22;2.15;;;14.40;99.90;;;;;;4906989;29;47207;-90
2023/05/05 01:27:54;;;;;;;5.43;2.08;;;14.30;99.90;;;;;;4886881;29;47354;-89
2023/05/05 01:33:21;;;;;;;9.75;2.17;;;14.20;99.90;;;;;;4973519;23;20512;-89
2023/05/05 01:35:54;;;;;;;6.15;1.92;;;14.10;99.90;;;;;;4936265;28;37392;-89
2023/05/05 01:38:34;;;;;;;6.35;2.50;;;14.10;99.90;;;;;;4931990;28;37011;-88
2023/05/05 01:41:16;;;;;;;6.97;2.10;;;14.00;99.90;;;;;;4934058;28;36286;-90
2023/05/05 01:43:45;;;;;;;4.47;2.30;;;14.00;99.90;;;;;;4935754;28;46955;-89
2023/05/05 01:46:13;;;;;;;3.83;2.22;;;13.90;99.90;;;;;;4935921;28;38506;-88
2023/05/05 01:48:44;;;;;;;5.85;2.38;;;13.90;99.90;;;;;;4911730;28;37147;-88
2023/05/05 01:51:12;;;;;;;8.95;2.60;;;13.90;99.90;;;;;;4932922;28;36931;-87
2023/05/05 01:53:38;;;;;;;5.43;1.90;;;13.80;99.90;;;;;;4930372;29;37580;-88
2023/05/05 01:56:09;;;;;;;4.15;2.67;;;13.80;99.90;;;;;;4907058;29;37528;-90
2023/05/05 01:58:37;;;;;;;7.93;3.05;;;13.70;99.90;;;;;;4918150;28;37223;-87
2023/05/05 02:01:04;;;;;;;5.15;2.80;;;13.80;99.90;;;;;;4917460;28;36048;-88
2023/05/05 02:03:32;;;;;;;7.35;3.40;;;13.70;99.90;;;;;;4932720;28;38022;-88
2023/05/05 02:06:00;;;;;;;7.03;3.20;;;13.70;99.90;;;;;;4927688;29;37700;-88
2023/05/05 02:08:28;;;;;;;9.38;3.08;;;13.60;99.90;;;;;;4913721;29;39263;-88
2023/05/05 02:11:01;;;;;;;5.97;3.30;;;13.60;99.90;;;;;;4923255;29;37979;-87
2023/05/05 02:13:31;;;;;;;8.35;3.38;;;13.60;99.90;;;;;;4931212;28;47154;-87
2023/05/05 02:19:11;;;;;;;6.95;3.80;;;13.50;99.90;;;;;;3144778;26;20788;-86
2023/05/05 02:21:37;;;;;;;5.35;3.90;;;13.40;99.90;;;;;;4918355;29;47843;-86
2023/05/05 02:24:04;;;;;;;7.10;4.40;;;13.40;99.90;;;;;;4918357;28;38110;-87
2023/05/05 02:26:35;;;;;;;9.45;4.53;;;13.40;99.90;;;;;;4923208;28;38521;-86
2023/05/05 02:29:27;;;;;;;9.05;5.07;;;13.30;99.90;;;;;;4935241;29;38983;-87
2023/05/05 02:32:00;;;;;;;8.82;5.63;;;13.30;99.90;;;;;;4918762;29;47195;-86
2023/05/05 02:42:45;;;;;;;12.98;8.00;;;13.20;99.90;;;;;;4936445;23;20063;-84
2023/05/05 02:45:15;;;;;;;12.23;8.15;;;13.20;99.90;;;;;;4929579;28;38914;-84
2023/05/05 02:56:58;;;;;;;16.08;9.55;;;13.10;99.90;;;;;;1243982;26;20454;-84
2023/05/05 03:06:41;;;;;;;16.88;12.45;;;13.00;99.90;;;;;;5049199;23;20039;-86
2023/05/05 03:12:17;;;;;;;19.35;13.60;;;12.90;99.90;;;;;;5163871;23;20055;-85
2023/05/05 03:42:16;;;;;;;37.97;25.77;;;12.80;99.90;;;;;;5080399;23;21118;-83
2023/05/05 03:51:13;;;;;;;40.15;29.80;;;12.80;99.90;;;;;;5199058;23;20153;-86
2023/05/05 03:59:23;;;;;;;43.95;33.30;;;12.70;99.90;;;;;;5088213;23;20037;-84
2023/05/05 04:21:30;;;;;;;44.42;31.13;;;12.40;99.90;;;;;;2033826;23;20120;-83
2023/05/05 04:24:09;;;;;;;46.10;33.28;;;12.40;99.90;;;;;;4936204;23;47270;-82
2023/05/05 04:48:19;;;;;;;43.95;33.80;;;12.20;99.90;;;;;;4119545;23;20036;-83
2023/05/05 05:04:36;;;;;;;48.58;39.72;;;12.50;99.90;;;;;;2696751;23;20346;31
2023/05/05 05:11:33;;;;;;;;;;;;;;;;;;;;;
2023/05/05 05:14:32;;;;;;;47.60;37.75;;;12.80;99.90;;;;;;4926420;28;49136;-84
2023/05/05 05:17:44;;;;;;;52.28;37.00;;;12.90;99.90;;;;;;4939814;28;49104;-83
2023/05/05 05:29:20;;;;;;;42.72;34.28;;;13.50;99.90;;;;;;5558349;23;20058;-83
2023/05/05 05:32:29;;;;;;;39.05;31.80;;;13.60;99.90;;;;;;4951504;28;37990;-87
2023/05/05 05:38:43;;;;;;;34.42;29.85;;;13.70;99.90;;;;;;4964811;23;20060;-88
2023/05/05 05:41:13;;;;;;;38.92;31.52;;;13.70;99.90;;;;;;4879815;28;49100;-90
2023/05/05 05:43:40;;;;;;;36.50;30.83;;;13.80;99.90;;;;;;4905520;29;37498;-89
2023/05/05 05:46:07;;;;;;;35.83;29.52;;;13.80;99.90;;;;;;4893997;28;36402;-88
2023/05/05 05:51:47;;;;;;;34.33;29.35;;;13.90;99.90;;;;;;4880571;23;20049;-91
2023/05/05 05:54:16;;;;;;;32.30;27.83;;;14.00;99.90;;;;;;4884914;28;38002;-92
2023/05/05 05:56:42;;;;;;;35.78;30.42;;;14.10;99.90;;;;;;4876625;29;38142;-90
2023/05/05 05:59:33;;;;;;;34.53;28.58;;;14.20;99.90;;;;;;4880384;29;39511;-92
2023/05/05 06:01:59;;;;;;;30.77;26.30;;;14.30;99.90;;;;;;4895261;28;38522;-91
2023/05/05 06:04:25;;;;;;;32.33;26.95;;;14.40;99.90;;;;;;4882586;29;36953;-91
2023/05/05 06:06:51;;;;;;;31.63;26.98;;;14.50;99.90;;;;;;4901098;28;35964;-91
2023/05/05 06:09:24;;;;;;;29.48;24.88;;;14.60;99.90;;;;;;4886482;28;39418;-91
2023/05/05 06:12:23;;;;;;;29.67;25.13;;;14.70;99.90;;;;;;4871580;29;38485;-92
2023/05/05 06:15:29;;;;;;;28.25;24.00;;;14.80;99.90;;;;;;4847108;29;49171;-93
2023/05/05 06:17:56;;;;;;;27.80;23.27;;;15.00;99.90;;;;;;4857357;29;47965;-93
2023/05/05 06:20:25;;;;;;;27.48;22.42;;;15.10;99.90;;;;;;4870985;29;39448;-92
2023/05/05 06:22:57;;;;;;;28.73;21.05;;;15.20;99.90;;;;;;4889030;28;37469;-93
2023/05/05 06:25:43;;;;;;;26.85;20.83;;;15.40;99.90;;;;;;4864795;28;38402;-92
2023/05/05 06:28:10;;;;;;;24.25;18.88;;;15.60;99.90;;;;;;4879773;28;38175;-92
2023/05/05 06:31:05;;;;;;;23.35;17.15;;;15.80;99.90;;;;;;4883410;28;38777;-91
2023/05/05 06:33:32;;;;;;;21.88;17.00;;;16.10;99.90;;;;;;4875248;29;47434;-91
2023/05/05 06:35:58;;;;;;;20.55;15.50;;;16.40;99.90;;;;;;4882298;29;38918;-91
2023/05/05 06:38:24;;;;;;;18.38;13.93;;;16.70;99.90;;;;;;4879577;29;36610;-88
2023/05/05 06:40:50;;;;;;;15.32;12.52;;;16.90;99.90;;;;;;4881001;29;40725;-87
2023/05/05 06:43:16;;;;;;;13.10;10.77;;;17.20;99.90;;;;;;4886367;29;39659;-87
2023/05/05 06:48:37;;;;;;;13.77;9.88;;;17.80;99.90;;;;;;4892721;29;49001;-88
2023/05/05 06:51:14;;;;;;;10.55;8.45;;;18.20;99.90;;;;;;4873998;29;38150;-87
2023/05/05 06:53:45;;;;;;;12.18;8.90;;;18.40;99.90;;;;;;4909275;28;39554;-88
2023/05/05 06:56:13;;;;;;;12.75;8.50;;;18.00;99.90;;;;;;4887669;29;38299;-87
2023/05/05 06:58:40;;;;;;;10.23;8.30;;;17.80;99.90;;;;;;4891390;29;35915;-87
2023/05/05 07:01:06;;;;;;;12.38;8.13;;;17.80;99.90;;;;;;4893100;29;37612;-86
2023/05/05 07:03:32;;;;;;;10.27;7.10;;;18.00;99.90;;;;;;4894299;29;38661;-87
2023/05/05 07:05:58;;;;;;;7.88;6.03;;;18.10;99.90;;;;;;4893247;29;39881;-86
2023/05/05 07:08:27;;;;;;;9.93;6.03;;;18.20;99.90;;;;;;4891855;29;40026;-88
2023/05/05 07:10:53;;;;;;;10.63;6.53;;;18.20;99.90;;;;;;4897614;29;37781;-88
2023/05/05 07:13:19;;;;;;;7.07;6.38;;;18.10;99.90;;;;;;4886211;29;38729;-88
2023/05/05 07:15:45;;;;;;;9.63;6.15;;;17.70;99.90;;;;;;4899773;29;39436;-86
2023/05/05 07:18:12;;;;;;;9.75;6.38;;;17.80;99.90;;;;;;4882472;29;37788;-84
2023/05/05 07:20:41;;;;;;;7.38;5.43;;;17.80;99.90;;;;;;4886368;29;39374;-88
2023/05/05 07:23:07;;;;;;;13.25;7.07;;;17.90;99.90;;;;;;4887167;29;39604;-87
2023/05/05 07:25:33;;;;;;;10.27;6.32;;;18.00;99.90;;;;;;4886562;29;39980;-87
2023/05/05 07:28:00;;;;;;;8.98;6.53;;;17.80;99.90;;;;;;4888268;29;35976;-87
2023/05/05 07:30:26;;;;;;;11.52;6.35;;;17.70;99.90;;;;;;4878246;29;39786;-87
2023/05/05 07:32:53;;;;;;;7.40;5.95;;;17.70;99.90;;;;;;4890616;29;37840;-85
2023/05/05 07:35:20;;;;;;;9.65;7.00;;;17.90;99.90;;;;;;4888584;29;37799;-85
2023/05/05 07:37:46;;;;;;;9.27;6.55;;;17.70;99.90;;;;;;4886555;29;37324;-85
2023/05/05 07:40:12;;;;;;;9.05;6.57;;;17.60;99.90;;;;;;4886583;29;39939;-85
2023/05/05 07:42:38;;;;;;;8.40;6.43;;;17.70;99.90;;;;;;4881339;29;38829;-87
2023/05/05 07:45:05;;;;;;;9.85;7.32;;;17.80;99.90;;;;;;4882659;29;39245;-87
2023/05/05 07:47:32;;;;;;;12.32;6.57;;;17.80;99.90;;;;;;4886796;29;37471;-84
2023/05/05 07:49:58;;;;;;;14.00;6.75;;;17.50;99.90;;;;;;4894142;29;39476;-85
2023/05/05 07:52:24;;;;;;;16.45;6.32;;;17.70;99.90;;;;;;4886973;29;38547;-82
2023/05/05 07:54:50;;;;;;;8.63;5.63;;;17.80;99.90;;;;;;4890453;29;38107;-84
2023/05/05 07:57:16;;;;;;;10.27;5.85;;;18.00;99.90;;;;;;4888553;29;37827;-85
2023/05/05 07:59:43;;;;;;;10.65;6.00;;;17.90;99.90;;;;;;4904777;28;40130;-82
2023/05/05 08:02:11;;;;;;;7.88;5.75;;;17.90;99.90;;;;;;4888417;29;40187;-84
2023/05/05 08:04:39;;;;;;;8.95;6.25;;;18.00;99.90;;;;;;4889926;29;37850;-83
2023/05/05 08:07:06;;;;;;;9.27;6.40;;;18.00;99.90;;;;;;4896450;29;37719;-87
2023/05/05 08:09:34;;;;;;;9.00;6.93;;;17.90;99.90;;;;;;4888506;29;39283;-84
2023/05/05 08:12:01;;;;;;;7.32;6.13;;;17.80;99.90;;;;;;4887305;29;39451;-86
2023/05/05 08:14:28;;;;;;;9.45;6.72;;;17.70;99.90;;;;;;4887939;29;47402;-85
2023/05/05 08:16:54;;;;;;;8.23;6.10;;;17.80;99.90;;;;;;4883394;29;36238;-85
2023/05/05 08:19:22;;;;;;;13.70;6.57;;;18.00;99.90;;;;;;4889622;29;38306;-84
2023/05/05 08:21:48;;;;;;;8.50;5.80;;;18.20;99.90;;;;;;4888757;29;38482;-84
2023/05/05 08:24:14;;;;;;;9.75;5.90;;;18.30;99.90;;;;;;4894163;29;38949;-85
2023/05/05 08:26:40;;;;;;;6.25;3.78;;;18.30;99.90;;;;;;4892156;29;36524;-84
2023/05/05 08:29:07;;;;;;;6.03;3.95;;;18.20;99.90;;;;;;4888900;29;39624;-84
2023/05/05 08:31:35;;;;;;;6.65;4.18;;;18.40;99.90;;;;;;4888676;29;38167;-85
2023/05/05 08:34:05;;;;;;;3.80;3.08;;;18.60;99.90;;;;;;4893835;29;38986;-84
2023/05/05 08:36:32;;;;;;;5.20;3.30;;;18.70;99.90;;;;;;4893057;29;47302;-85
2023/05/05 08:39:00;;;;;;;6.50;3.10;;;18.70;99.90;;;;;;4896092;29;38623;-83
2023/05/05 08:41:27;;;;;;;5.85;3.30;;;18.50;99.90;;;;;;4889719;29;39318;-85
2023/05/05 08:43:53;;;;;;;4.90;3.10;;;18.50;99.90;;;;;;4905621;28;37964;-84
2023/05/05 08:46:20;;;;;;;3.90;2.40;;;18.80;99.90;;;;;;4883271;29;37539;-84
2023/05/05 08:48:47;;;;;;;3.85;2.63;;;19.10;99.90;;;;;;4885626;29;39317;-84
2023/05/05 08:51:18;;;;;;;2.88;1.83;;;18.90;99.90;;;;;;4886219;29;39026;-83
2023/05/05 08:53:59;;;;;;;3.33;1.55;;;18.80;99.90;;;;;;4890256;29;37586;-85
2023/05/05 08:56:38;;;;;;;3.75;1.73;;;18.70;99.90;;;;;;4885218;29;38066;-83
2023/05/05 08:59:04;;;;;;;4.40;1.58;;;18.80;99.90;;;;;;4882856;29;39144;-84
2023/05/05 09:01:32;;;;;;;4.32;1.75;;;19.00;99.90;;;;;;4893204;29;39603;-85
2023/05/05 09:03:59;;;;;;;4.05;1.85;;;19.10;99.90;;;;;;4891725;29;39986;-85
2023/05/05 09:06:26;;;;;;;3.17;1.90;;;18.80;99.90;;;;;;4880738;29;36680;-84
2023/05/05 09:08:55;;;;;;;3.05;1.70;;;18.70;99.90;;;;;;4886757;29;39905;-86
2023/05/05 09:11:22;;;;;;;6.47;2.50;;;18.60;99.90;;;;;;4883935;29;38764;-86
2023/05/05 09:13:48;;;;;;;6.72;2.40;;;18.30;99.90;;;;;;4887384;29;39047;-86
2023/05/05 09:16:15;;;;;;;6.72;2.90;;;18.20;99.90;;;;;;4891612;29;37515;-86
2023/05/05 09:18:41;;;;;;;3.78;2.28;;;17.80;99.90;;;;;;4888225;29;40223;-87
2023/05/05 09:21:21;;;;;;;6.07;2.63;;;17.60;99.90;;;;;;4885919;29;37668;-87
2023/05/05 09:24:10;;;;;;;6.40;3.10;;;17.40;99.90;;;;;;4888119;29;38805;-89
2023/05/05 09:26:46;;;;;;;9.13;4.15;;;17.00;99.90;;;;;;4891154;29;47770;-92
2023/05/05 09:29:22;;;;;;;8.20;4.03;;;16.70;99.90;;;;;;4890944;28;39114;-92
2023/05/05 09:32:07;;;;;;;5.72;3.75;;;16.40;99.90;;;;;;4888585;29;38830;-90
2023/05/05 09:34:37;;;;;;;7.35;4.32;;;16.00;99.90;;;;;;4898376;29;48685;-92
2023/05/05 09:37:05;;;;;;;10.27;5.53;;;15.60;99.90;;;;;;4885871;29;36480;-90
2023/05/05 09:39:31;;;;;;;8.80;5.13;;;15.50;99.90;;;;;;4904018;28;40247;-89
2023/05/05 09:41:58;;;;;;;5.95;3.85;;;15.40;99.90;;;;;;4891813;29;37215;-89
2023/05/05 09:44:35;;;;;;;5.72;2.78;;;15.40;99.90;;;;;;4883081;29;36930;-89
2023/05/05 09:47:02;;;;;;;4.45;2.83;;;15.20;99.90;;;;;;4884135;29;37778;-90
2023/05/05 09:49:29;;;;;;;6.22;3.78;;;15.20;99.90;;;;;;4880980;29;47517;-88
2023/05/05 09:51:56;;;;;;;9.02;4.82;;;15.30;99.90;;;;;;4891419;29;37769;-90
2023/05/05 09:54:28;;;;;;;8.63;5.63;;;15.30;99.90;;;;;;4892559;29;38890;-89
2023/05/05 09:56:56;;;;;;;8.02;5.72;;;15.20;99.90;;;;;;4884740;29;36157;-91
2023/05/05 09:59:23;;;;;;;8.85;5.85;;;15.20;99.90;;;;;;4893521;28;38801;-88
2023/05/05 10:01:50;;;;;;;10.60;6.18;;;15.10;99.90;;;;;;4882790;29;37880;-88
2023/05/05 10:04:28;;;;;;;10.82;6.63;;;15.20;99.90;;;;;;4876684;29;38812;-86
2023/05/05 10:06:57;;;;;;;7.78;5.57;;;15.20;99.90;;;;;;4879894;29;34802;-89
2023/05/05 10:09:24;;;;;;;12.77;7.18;;;15.30;99.90;;;;;;4878779;29;39502;-87
2023/05/05 10:11:52;;;;;;;13.23;8.02;;;15.30;99.90;;;;;;4883930;29;41595;-89
2023/05/05 10:14:19;;;;;;;12.38;8.80;;;15.30;99.90;;;;;;4883497;29;37298;-90
2023/05/05 10:16:53;;;;;;;12.70;8.20;;;15.20;99.90;;;;;;4902059;29;36991;-89
2023/05/05 10:19:23;;;;;;;15.07;9.75;;;15.10;99.90;;;;;;4878617;29;40347;-88
2023/05/05 10:21:52;;;;;;;13.50;9.27;;;15.00;99.90;;;;;;4874861;29;40446;-86
2023/05/05 10:24:28;;;;;;;11.38;9.13;;;14.90;99.90;;;;;;4868069;29;38710;-87
2023/05/05 10:26:57;;;;;;;14.60;9.68;;;14.80;99.90;;;;;;4871711;29;38237;-85
2023/05/05 10:29:53;;;;;;;12.02;7.97;;;14.80;99.90;;;;;;4873051;29;39174;-84
2023/05/05 10:32:35;;;;;;;13.48;8.68;;;14.70;99.90;;;;;;4876808;29;38713;-86
2023/05/05 10:35:03;;;;;;;7.45;6.20;;;14.80;99.90;;;;;;4879044;29;40085;-87
2023/05/05 10:37:29;;;;;;;10.10;6.57;;;14.90;99.90;;;;;;4880899;29;48632;-86
2023/05/05 10:39:58;;;;;;;5.63;5.03;;;15.00;99.90;;;;;;4873988;29;39573;-86
2023/05/05 10:42:24;;;;;;;6.32;4.55;;;15.00;99.90;;;;;;4882632;29;38579;-86
2023/05/05 10:44:51;;;;;;;5.10;3.70;;;14.80;99.90;;;;;;4862807;29;38815;-86
2023/05/05 10:47:19;;;;;;;8.68;4.13;;;14.60;99.90;;;;;;4875854;29;36853;-86
2023/05/05 10:50:03;;;;;;;8.88;3.78;;;14.50;99.90;;;;;;4880371;29;40561;-85
2023/05/05 10:52:43;;;;;;;9.50;4.53;;;14.50;99.90;;;;;;4875825;29;48329;-83
2023/05/05 10:55:17;;;;;;;8.70;3.60;;;14.40;99.90;;;;;;4889512;28;36995;-82
2023/05/05 10:57:45;;;;;;;7.68;3.38;;;14.40;99.90;;;;;;4875225;29;37136;-81
2023/05/05 11:00:56;;;;;;;7.30;3.30;;;14.40;99.90;;;;;;4886093;29;38721;-82
2023/05/05 11:03:23;;;;;;;5.60;3.20;;;14.30;99.90;;;;;;4898718;28;50334;-81
2023/05/05 11:06:31;;;;;;;6.97;3.20;;;14.30;99.90;;;;;;4881133;29;36883;-82
2023/05/05 11:09:17;;;;;;;6.03;2.97;;;14.40;99.90;;;;;;4889211;29;49083;-82
2023/05/05 11:12:06;;;;;;;7.95;3.08;;;14.30;99.90;;;;;;4882452;29;47283;-85
2023/05/05 11:14:33;;;;;;;7.28;3.20;;;14.30;99.90;;;;;;4879084;29;46941;-84
2023/05/05 11:16:59;;;;;;;8.40;3.20;;;14.30;99.90;;;;;;4875758;29;40339;-83
2023/05/05 11:19:45;;;;;;;7.45;3.67;;;14.30;99.90;;;;;;4870553;29;37989;-89
2023/05/05 11:22:11;;;;;;;7.32;4.32;;;14.40;99.90;;;;;;4872830;29;39389;-86
2023/05/05 11:24:41;;;;;;;7.32;3.90;;;14.40;99.90;;;;;;4875465;29;39335;-85
2023/05/05 11:27:07;;;;;;;10.77;3.42;;;14.20;99.90;;;;;;4876753;29;38824;-83
2023/05/05 11:33:29;;;;;;;9.20;5.00;;;14.10;99.90;;;;;;4888131;29;40609;-83
2023/05/05 11:39:31;;;;;;;12.00;6.97;;;14.10;99.90;;;;;;4886760;29;40219;-85
2023/05/05 11:42:13;;;;;;;10.13;5.20;;;14.10;99.90;;;;;;4879874;29;37495;-83
2023/05/05 11:44:40;;;;;;;6.53;2.85;;;14.00;99.90;;;;;;4877271;29;47040;-85
2023/05/05 11:47:06;;;;;;;6.32;3.38;;;13.90;99.90;;;;;;4882103;29;38556;-83
2023/05/05 11:49:33;;;;;;;11.50;3.63;;;13.90;99.90;;;;;;4884569;29;37304;-83
2023/05/05 11:52:05;;;;;;;7.93;3.63;;;13.90;99.90;;;;;;4878532;29;37523;-82
2023/05/05 11:54:33;;;;;;;6.20;2.85;;;13.90;99.90;;;;;;4878440;29;47191;-82
2023/05/05 11:57:03;;;;;;;6.05;3.08;;;13.80;99.90;;;;;;4889323;29;38263;-81
2023/05/05 11:59:31;;;;;;;7.65;3.03;;;13.80;99.90;;;;;;4892697;29;47435;-81
2023/05/05 12:01:58;;;;;;;7.97;3.80;;;13.70;99.90;;;;;;4905979;29;37639;-81
2023/05/05 12:18:38;;;;;;;10.10;4.35;;;13.70;99.90;;;;;;5009784;23;20053;-83
2023/05/05 12:27:35;;;;;;;10.20;3.90;;;13.60;99.90;;;;;;5238823;23;20047;-83
2023/05/05 13:24:50;;;;;;;5.65;2.03;;;13.40;99.90;;;;;;5099153;23;20044;-83
2023/05/05 13:27:27;;;;;;;5.88;2.08;;;13.60;99.90;;;;;;4960992;28;38864;-82
2023/05/05 13:30:23;;;;;;;7.43;2.08;;;13.70;99.90;;;;;;4955954;28;39600;-82
2023/05/05 13:32:54;;;;;;;6.53;2.00;;;13.80;99.90;;;;;;4938733;28;50213;-83
2023/05/05 13:35:20;;;;;;;4.70;1.52;;;14.50;99.90;;;;;;4919406;28;37896;-89
2023/05/05 13:37:47;;;;;;;3.42;1.90;;;14.90;99.90;;;;;;4919593;28;39255;-86
2023/05/05 13:40:18;;;;;;;3.38;2.30;;;15.10;99.90;;;;;;4892366;28;37361;-88
2023/05/05 13:42:45;;;;;;;2.90;1.73;;;15.10;99.90;;;;;;4885259;28;36945;-88
2023/05/05 13:45:11;;;;;;;5.53;1.95;;;14.90;99.90;;;;;;4912325;28;38665;-84
2023/05/05 13:47:37;;;;;;;2.92;1.40;;;15.00;99.90;;;;;;4912424;28;37765;-84
2023/05/05 13:50:06;;;;;;;4.35;1.88;;;15.30;99.90;;;;;;4918967;28;38404;-88
2023/05/05 13:52:32;;;;;;;3.00;1.58;;;15.30;99.90;;;;;;4920726;28;47182;-87
2023/05/05 13:55:06;;;;;;;2.08;1.67;;;15.30;99.90;;;;;;4913100;28;36722;-92
2023/05/05 13:57:37;;;;;;;3.55;1.50;;;15.30;99.90;;;;;;4912356;29;46851;-96
2023/05/05 14:00:04;;;;;;;3.13;1.77;;;15.50;99.90;;;;;;4907765;29;37682;-92
2023/05/05 14:02:30;;;;;;;4.07;1.40;;;15.80;99.90;;;;;;4912881;29;36562;-94
2023/05/05 14:04:57;;;;;;;3.90;1.45;;;15.90;99.90;;;;;;4916177;29;37499;-91
2023/05/05 14:07:24;;;;;;;2.00;1.27;;;15.70;99.90;;;;;;4913779;28;37782;-92
2023/05/05 14:09:50;;;;;;;2.65;1.33;;;15.90;99.90;;;;;;4907254;29;38117;-91
2023/05/05 14:12:16;;;;;;;2.97;1.80;;;16.40;99.90;;;;;;4916144;28;36964;-93
2023/05/05 14:14:42;;;;;;;5.03;1.58;;;16.20;99.90;;;;;;4911814;29;36392;-92
2023/05/05 14:17:09;;;;;;;3.53;1.67;;;16.50;99.90;;;;;;4926124;29;38664;-92
2023/05/05 14:19:35;;;;;;;4.43;1.75;;;16.80;99.90;;;;;;4914396;29;37551;-91
2023/05/05 14:22:02;;;;;;;2.60;1.83;;;16.70;99.90;;;;;;4914137;29;38446;-92
2023/05/05 14:24:28;;;;;;;3.78;1.75;;;16.50;99.90;;;;;;4911265;29;47516;-92
2023/05/05 14:26:54;;;;;;;2.53;1.73;;;16.50;99.90;;;;;;4904907;29;41467;-93
2023/05/05 14:29:20;;;;;;;2.20;1.48;;;16.70;99.90;;;;;;4929531;28;36705;-93
2023/05/05 14:31:46;;;;;;;3.92;1.90;;;17.20;99.90;;;;;;4911477;29;36896;-86
2023/05/05 14:34:20;;;;;;;4.97;1.83;;;17.50;99.90;;;;;;4928089;29;37189;-90
2023/05/05 14:36:49;;;;;;;2.22;1.63;;;17.90;99.90;;;;;;4912626;29;39009;-89
2023/05/05 14:39:15;;;;;;;3.35;2.00;;;18.40;99.90;;;;;;4921439;28;37474;-85
2023/05/05 14:41:41;;;;;;;4.03;1.83;;;18.00;99.90;;;;;;4922356;28;37330;-84
2023/05/05 14:44:07;;;;;;;4.00;2.45;;;17.90;99.90;;;;;;4915623;28;37115;-85
2023/05/05 14:46:33;;;;;;;4.38;2.47;;;17.60;99.90;;;;;;4920390;28;38121;-88
2023/05/05 14:49:00;;;;;;;4.22;2.42;;;17.40;99.90;;;;;;4918329;29;38958;-88
2023/05/05 14:51:26;;;;;;;3.95;2.60;;;17.50;99.90;;;;;;4915496;28;38137;-89
2023/05/05 14:53:52;;;;;;;3.72;2.60;;;17.30;99.90;;;;;;4929757;28;36746;-89
2023/05/05 14:56:20;;;;;;;2.83;2.63;;;17.70;99.90;;;;;;4921029;28;38852;-86
2023/05/05 14:58:46;;;;;;;5.38;3.88;;;17.80;99.90;;;;;;4920934;28;35566;-90
2023/05/05 15:01:12;;;;;;;4.03;3.10;;;17.40;99.90;;;;;;4924066;28;36886;-89
2023/05/05 15:03:39;;;;;;;4.55;3.67;;;17.60;99.90;;;;;;4923346;29;36416;-87
2023/05/05 15:06:06;;;;;;;6.28;3.72;;;17.70;99.90;;;;;;4925464;28;39938;-85
2023/05/05 15:08:33;;;;;;;3.90;3.47;;;17.60;99.90;;;;;;4925339;28;37072;-90
2023/05/05 15:10:59;;;;;;;4.38;3.22;;;17.50;99.90;;;;;;4926761;28;36653;-87
2023/05/05 15:13:25;;;;;;;4.95;3.67;;;17.80;99.90;;;;;;4916041;28;36242;-84
2023/05/05 15:15:51;;;;;;;4.72;3.55;;;18.20;99.90;;;;;;4905948;28;37856;-84
2023/05/05 15:18:17;;;;;;;4.90;3.90;;;18.00;99.90;;;;;;4921534;28;37746;-86
2023/05/05 15:20:44;;;;;;;3.70;3.08;;;17.60;99.90;;;;;;4922355;28;38336;-86
2023/05/05 15:23:10;;;;;;;3.90;3.35;;;17.80;99.90;;;;;;4911604;29;37515;-85
2023/05/05 15:25:36;;;;;;;3.85;3.38;;;17.90;99.90;;;;;;4918255;28;37982;-87
2023/05/05 15:28:02;;;;;;;4.05;3.13;;;17.80;99.90;;;;;;4923103;28;38645;-85
2023/05/05 15:30:29;;;;;;;4.75;3.83;;;17.70;99.90;;;;;;4912354;29;37212;-84
2023/05/05 15:32:58;;;;;;;5.18;3.70;;;17.60;99.90;;;;;;4940384;28;35409;-86
2023/05/05 15:35:24;;;;;;;4.32;3.30;;;17.50;99.90;;;;;;4921458;28;39206;-87
2023/05/05 15:37:52;;;;;;;4.47;3.85;;;17.40;99.90;;;;;;4917335;28;38013;-85
2023/05/05 15:40:18;;;;;;;4.05;3.65;;;17.30;99.90;;;;;;4926351;28;36877;-86
2023/05/05 15:42:44;;;;;;;5.40;4.28;;;17.20;99.90;;;;;;4931014;28;36976;-86
2023/05/05 15:45:13;;;;;;;5.68;4.07;;;17.30;99.90;;;;;;4910795;28;38032;-88
2023/05/05 15:47:39;;;;;;;6.35;5.00;;;17.30;99.90;;;;;;4923297;28;37483;-88
2023/05/05 15:50:06;;;;;;;4.72;4.28;;;17.10;99.90;;;;;;4921477;28;36857;-88
2023/05/05 15:52:33;;;;;;;6.53;4.60;;;17.00;99.90;;;;;;4919293;28;36525;-85
2023/05/05 15:55:00;;;;;;;5.88;5.03;;;16.90;99.90;;;;;;4928408;28;38804;-89
2023/05/05 15:57:26;;;;;;;6.82;4.95;;;16.90;99.90;;;;;;4920673;28;38377;-89
2023/05/05 15:59:53;;;;;;;9.55;5.72;;;16.90;99.90;;;;;;4944663;28;37973;-91
2023/05/05 16:02:20;;;;;;;6.28;5.65;;;16.60;99.90;;;;;;4931293;28;36531;-91
2023/05/05 16:04:46;;;;;;;6.40;5.40;;;16.50;99.90;;;;;;4915520;28;41093;-90
2023/05/05 16:07:12;;;;;;;7.25;6.53;;;16.50;99.90;;;;;;4915564;28;37597;-92
2023/05/05 16:09:38;;;;;;;8.48;7.28;;;16.70;99.90;;;;;;4930245;28;38841;-88
2023/05/05 16:12:05;;;;;;;9.70;6.93;;;17.00;99.90;;;;;;4918389;28;35842;-92
2023/05/05 16:14:31;;;;;;;8.57;6.57;;;17.20;99.90;;;;;;4913134;29;39329;-87
2023/05/05 16:16:57;;;;;;;8.10;6.07;;;17.30;99.90;;;;;;4893151;28;37308;-90
2023/05/05 16:19:54;;;;;;;;;;;;;;;;;;;;;
2023/05/05 16:22:20;;;;;;;8.18;5.35;;;17.40;99.90;;;;;;4933811;28;37805;-85
2023/05/05 16:24:47;;;;;;;7.50;4.97;;;17.40;99.90;;;;;;4925472;29;37816;-81
2023/05/05 16:27:13;;;;;;;6.20;5.32;;;17.50;99.90;;;;;;4907114;28;37499;-87
2023/05/05 16:29:42;;;;;;;7.53;5.78;;;17.70;99.90;;;;;;4926754;28;37058;-86
2023/05/05 16:32:08;;;;;;;7.10;5.30;;;17.70;99.90;;;;;;4928075;28;37473;-84
2023/05/05 16:34:35;;;;;;;8.25;5.35;;;17.60;99.90;;;;;;4914129;28;39179;-86
2023/05/05 16:37:01;;;;;;;8.48;5.68;;;17.60;99.90;;;;;;4927069;28;37474;-85
2023/05/05 16:39:27;;;;;;;7.00;5.70;;;17.50;99.90;;;;;;4929788;28;37659;-86
2023/05/05 16:41:53;;;;;;;9.30;5.32;;;17.40;99.90;;;;;;4928236;28;35820;-81
2023/05/05 16:44:19;;;;;;;8.15;5.97;;;17.20;99.90;;;;;;4927895;28;38154;-86
2023/05/05 16:46:45;;;;;;;8.65;6.22;;;17.20;99.90;;;;;;4921077;28;38096;-87
2023/05/05 16:49:11;;;;;;;10.35;5.82;;;17.00;99.90;;;;;;4914785;29;37415;-86
2023/05/05 16:51:37;;;;;;;8.90;6.53;;;16.90;99.90;;;;;;4932864;28;36954;-86
2023/05/05 16:54:03;;;;;;;7.55;6.00;;;16.90;99.90;;;;;;4913017;28;38115;-83
2023/05/05 16:56:29;;;;;;;8.65;5.72;;;16.90;99.90;;;;;;4921631;28;39094;-83
2023/05/05 16:58:55;;;;;;;9.25;6.60;;;17.10;99.90;;;;;;4911867;29;36659;-84